Time;durP1;ratioP1;P1;durP2;ratioP2;P2;SDS_P1;SDS_P2;PMS_P1;PMS_P2;Temp;Humidity;BMP_temperature;BMP_pressure;BME280_temperature;BME280_humidity;BME280_pressure;Samples;Min_cycle;Max_cycle;Signal;HPM_P1;HPM_P2
2023/10/16 00:00:32;;;;;;;2.30;2.10;;;8.50;39.70;;;;;;10341202;28;20337;-73
2023/10/16 00:05:44;;;;;;;2.10;1.93;;;8.50;39.60;;;;;;10349144;28;20222;-73
2023/10/16 00:10:58;;;;;;;1.77;1.67;;;8.60;39.80;;;;;;10345875;28;20231;-73
2023/10/16 00:16:03;;;;;;;1.53;1.40;;;8.60;39.70;;;;;;10345289;28;20230;-73
2023/10/16 00:21:08;;;;;;;2.03;1.80;;;8.60;39.70;;;;;;10350302;28;20237;-73
2023/10/16 00:26:19;;;;;;;2.07;1.80;;;8.60;39.40;;;;;;10351418;28;20218;-73
2023/10/16 00:31:23;;;;;;;1.90;1.60;;;8.70;39.50;;;;;;10348890;28;20308;-73
2023/10/16 00:36:28;;;;;;;1.57;1.47;;;8.70;39.30;;;;;;10345275;28;20248;-72
2023/10/16 00:41:31;;;;;;;4.17;1.77;;;8.70;39.30;;;;;;10347299;28;20238;-72
2023/10/16 00:46:37;;;;;;;2.23;1.67;;;8.70;39.20;;;;;;10350096;28;20313;-72
2023/10/16 00:51:45;;;;;;;1.80;1.70;;;8.70;39.20;;;;;;10349931;28;21257;-75
2023/10/16 00:56:50;;;;;;;2.03;1.67;;;8.70;39.10;;;;;;10352735;28;20747;-76
2023/10/16 01:02:04;;;;;;;1.93;1.73;;;8.60;39.00;;;;;;10348895;28;20233;-75
2023/10/16 01:07:09;;;;;;;1.97;1.77;;;8.60;39.00;;;;;;10343648;28;20253;-73
2023/10/16 01:12:13;;;;;;;2.00;1.80;;;8.60;39.00;;;;;;10351369;28;20250;-73
2023/10/16 01:17:17;;;;;;;1.73;1.57;;;8.60;38.90;;;;;;10348599;28;20317;-73
2023/10/16 01:22:22;;;;;;;1.83;1.73;;;8.60;38.80;;;;;;10351775;28;20222;-73
2023/10/16 01:27:29;;;;;;;3.37;1.67;;;8.60;38.80;;;;;;10345998;28;20231;-73
2023/10/16 01:32:34;;;;;;;2.00;1.80;;;8.50;38.70;;;;;;10335408;28;20234;-73
2023/10/16 01:37:39;;;;;;;1.93;1.77;;;8.50;38.70;;;;;;10347960;28;20230;-73
2023/10/16 01:42:44;;;;;;;2.33;2.13;;;8.50;38.70;;;;;;10350337;28;20293;-73
2023/10/16 01:47:48;;;;;;;2.93;2.30;;;8.40;38.60;;;;;;10344284;28;20955;-74
2023/10/16 01:52:51;;;;;;;2.30;1.90;;;8.40;38.60;;;;;;10351396;28;20234;-74
2023/10/16 01:57:59;;;;;;;1.60;1.50;;;8.40;38.60;;;;;;10351291;28;20240;-74
2023/10/16 02:03:08;;;;;;;1.60;1.50;;;8.40;38.60;;;;;;10345980;28;20238;-73
2023/10/16 02:08:13;;;;;;;1.90;1.80;;;8.30;38.60;;;;;;10339984;28;20342;-74
2023/10/16 02:13:18;;;;;;;1.30;1.30;;;8.30;38.50;;;;;;10350066;28;20246;-74
2023/10/16 02:18:22;;;;;;;1.67;1.57;;;8.30;38.50;;;;;;10345662;28;20234;-73
2023/10/16 02:23:30;;;;;;;1.37;1.27;;;8.30;38.60;;;;;;10341816;28;20224;-73
2023/10/16 02:28:36;;;;;;;1.87;1.60;;;8.20;38.50;;;;;;10350904;28;20240;-73
2023/10/16 02:33:44;;;;;;;1.80;1.70;;;8.20;38.50;;;;;;10344797;28;20226;-73
2023/10/16 02:38:47;;;;;;;1.73;1.60;;;8.20;38.60;;;;;;10341546;28;20230;-73
2023/10/16 02:43:52;;;;;;;1.63;1.53;;;8.20;38.50;;;;;;10348004;28;20225;-73
2023/10/16 02:48:55;;;;;;;1.47;1.30;;;8.10;38.30;;;;;;10346201;28;20926;-73
2023/10/16 02:54:00;;;;;;;1.60;1.50;;;8.10;38.30;;;;;;10343341;28;20658;-74
2023/10/16 02:59:08;;;;;;;1.77;1.60;;;8.10;38.40;;;;;;10347253;28;20249;-74
2023/10/16 03:04:16;;;;;;;1.10;1.10;;;8.10;38.50;;;;;;10346409;28;20222;-74
2023/10/16 03:09:26;;;;;;;1.73;1.30;;;8.00;38.50;;;;;;10348598;28;20230;-74
2023/10/16 03:14:44;;;;;;;1.60;1.50;;;8.00;38.40;;;;;;10345347;28;20233;-74
2023/10/16 03:19:48;;;;;;;1.47;1.40;;;8.00;38.40;;;;;;10347474;28;20224;-73
2023/10/16 03:24:59;;;;;;;1.73;1.63;;;8.00;38.40;;;;;;10346670;28;20635;-72
2023/10/16 03:30:05;;;;;;;1.90;1.67;;;7.90;38.30;;;;;;10344172;28;20306;-73
2023/10/16 03:35:09;;;;;;;1.63;1.50;;;7.90;38.30;;;;;;10342408;28;20237;-73
2023/10/16 03:40:13;;;;;;;1.70;1.60;;;7.90;38.30;;;;;;10345036;28;20320;-73
2023/10/16 03:45:20;;;;;;;2.60;2.40;;;7.90;38.30;;;;;;10341465;28;20223;-73
2023/10/16 03:50:25;;;;;;;4.47;3.83;;;7.80;38.20;;;;;;10344032;28;20254;-73
2023/10/16 03:55:31;;;;;;;5.53;5.03;;;7.90;38.30;;;;;;10349473;28;20237;-74
2023/10/16 04:00:50;;;;;;;5.10;4.67;;;7.80;38.20;;;;;;10350134;28;20254;-74
2023/10/16 04:05:54;;;;;;;2.90;2.70;;;7.70;38.20;;;;;;10352489;28;20268;-74
2023/10/16 04:10:57;;;;;;;2.60;2.40;;;7.70;38.90;;;;;;10354627;28;20318;-72
2023/10/16 04:16:13;;;;;;;3.00;2.10;;;7.70;38.20;;;;;;10347275;28;20218;-73
2023/10/16 04:21:40;;;;;;;2.23;2.03;;;7.60;38.20;;;;;;10340661;28;20589;-73
2023/10/16 04:26:57;;;;;;;3.23;2.50;;;7.60;38.60;;;;;;10352752;28;20313;-74
2023/10/16 04:32:20;;;;;;;3.57;3.27;;;7.60;38.80;;;;;;10401270;23;20737;-74
2023/10/16 04:48:23;;;;;;;5.27;4.77;;;7.50;38.40;;;;;;10392958;28;20224;-76
2023/10/16 04:53:27;;;;;;;4.83;4.30;;;7.50;38.40;;;;;;10390001;28;20252;-74
2023/10/16 04:58:39;;;;;;;3.70;3.40;;;7.50;38.40;;;;;;10392620;28;20304;-72
2023/10/16 05:04:14;;;;;;;3.30;3.00;;;7.40;38.40;;;;;;10387393;28;20225;-73
2023/10/16 05:15:20;;;;;;;2.20;2.00;;;7.40;38.30;;;;;;10378416;28;20225;-73
2023/10/16 05:19:54;;;;;;;2.07;1.87;;;7.40;38.20;;;;;;10384614;28;20233;-72
2023/10/16 06:18:46;;;;;;;1.80;1.70;;;7.20;38.60;;;;;;10364244;28;20239;-73
2023/10/16 06:23:51;;;;;;;2.20;2.00;;;7.10;38.50;;;;;;10377960;28;20232;-76
2023/10/16 06:28:54;;;;;;;2.00;1.90;;;7.10;39.00;;;;;;10378025;28;20719;-73
2023/10/16 06:33:58;;;;;;;1.73;1.63;;;7.00;38.40;;;;;;10374918;28;20234;-73
2023/10/16 06:39:07;;;;;;;3.10;1.80;;;7.00;38.40;;;;;;10374846;28;20222;-73
2023/10/16 06:44:15;;;;;;;2.10;1.90;;;6.90;38.30;;;;;;10371033;28;20221;-72
2023/10/16 06:49:26;;;;;;;2.10;1.90;;;7.00;38.40;;;;;;10378204;28;20445;-72
2023/10/16 06:54:31;;;;;;;1.83;1.73;;;7.00;38.40;;;;;;10376306;28;21713;-72
2023/10/16 06:59:37;;;;;;;2.10;2.00;;;7.00;38.40;;;;;;10378703;28;20222;-72
2023/10/16 07:04:41;;;;;;;2.40;2.03;;;7.00;38.40;;;;;;10379933;28;20232;-72
2023/10/16 07:09:48;;;;;;;2.33;2.13;;;7.00;38.40;;;;;;10380545;28;20658;-72
2023/10/16 07:14:56;;;;;;;2.53;2.33;;;7.00;38.80;;;;;;10381403;28;20238;-72
2023/10/16 07:19:59;;;;;;;2.43;2.23;;;7.10;39.00;;;;;;10378222;28;20613;-71
2023/10/16 07:25:23;;;;;;;2.63;2.33;;;7.10;39.10;;;;;;10385762;28;20221;-73
2023/10/16 07:30:33;;;;;;;2.47;2.27;;;7.20;39.30;;;;;;10389554;28;20279;-75
2023/10/16 07:35:37;;;;;;;2.50;2.30;;;7.30;39.50;;;;;;10382331;28;20217;-73
2023/10/16 07:40:42;;;;;;;2.40;2.20;;;7.30;39.80;;;;;;10389369;28;20957;-73
2023/10/16 07:45:47;;;;;;;3.37;2.73;;;7.50;40.30;;;;;;10386147;28;20750;-73
2023/10/16 07:50:52;;;;;;;2.97;2.77;;;7.70;40.60;;;;;;10383715;28;20860;-73
2023/10/16 07:55:57;;;;;;;2.93;2.73;;;7.90;41.00;;;;;;10371480;28;20236;-73
2023/10/16 08:06:23;;;;;;;3.17;2.87;;;8.50;41.20;;;;;;10387640;28;20797;-75
2023/10/16 08:11:29;;;;;;;2.80;2.60;;;8.70;41.10;;;;;;10388557;28;20244;-75
2023/10/16 08:16:32;;;;;;;2.83;2.63;;;9.00;41.20;;;;;;10384440;28;20233;-73
2023/10/16 08:21:39;;;;;;;3.63;3.33;;;9.20;41.30;;;;;;10384490;28;20261;-74
2023/10/16 08:26:44;;;;;;;3.77;3.33;;;9.50;41.40;;;;;;10384954;28;20230;-73
2023/10/16 08:31:52;;;;;;;5.17;4.67;;;9.80;41.40;;;;;;10383956;28;20234;-74
2023/10/16 08:36:56;;;;;;;5.27;4.87;;;10.00;40.20;;;;;;10388240;28;20230;-74
2023/10/16 08:42:06;;;;;;;5.50;5.10;;;10.30;40.20;;;;;;10382915;28;20229;-73
2023/10/16 08:47:17;;;;;;;5.90;5.40;;;10.40;40.30;;;;;;10385079;28;20218;-73
2023/10/16 08:52:22;;;;;;;6.47;5.87;;;10.70;40.50;;;;;;10382631;28;20308;-73
2023/10/16 08:57:27;;;;;;;6.00;5.50;;;10.90;40.70;;;;;;10383518;28;20308;-73
2023/10/16 09:02:31;;;;;;;5.70;5.20;;;11.10;40.60;;;;;;10383453;28;20664;-73
2023/10/16 09:07:34;;;;;;;5.87;5.37;;;11.30;40.30;;;;;;10379169;28;20229;-73
2023/10/16 09:12:52;;;;;;;6.10;5.53;;;11.50;40.40;;;;;;10384115;28;20229;-73
2023/10/16 09:17:56;;;;;;;6.63;6.03;;;11.70;40.20;;;;;;10382141;28;20244;-74
2023/10/16 09:23:02;;;;;;;7.00;6.33;;;11.90;40.30;;;;;;10378312;28;20237;-74
2023/10/16 09:28:09;;;;;;;7.77;6.40;;;12.10;40.10;;;;;;10381695;28;20252;-74
2023/10/16 09:33:12;;;;;;;8.13;6.90;;;12.30;40.70;;;;;;10380798;28;20251;-75
2023/10/16 09:38:19;;;;;;;8.07;7.27;;;12.50;40.20;;;;;;10373156;28;20776;-75
2023/10/16 09:43:25;;;;;;;8.63;7.87;;;12.70;40.10;;;;;;10364514;28;20279;-75
2023/10/16 09:48:31;;;;;;;8.33;7.57;;;12.80;39.80;;;;;;10369524;28;20236;-76
2023/10/16 09:53:35;;;;;;;7.63;7.03;;;13.00;39.70;;;;;;10382149;28;20229;-75
2023/10/16 09:58:45;;;;;;;7.10;6.40;;;13.10;39.60;;;;;;10382386;28;20230;-75
2023/10/16 10:03:49;;;;;;;6.87;6.27;;;13.20;39.50;;;;;;10381242;28;20233;-73
2023/10/16 10:09:22;;;;;;;7.17;6.53;;;13.30;39.40;;;;;;10382880;28;20234;-76
2023/10/16 10:14:39;;;;;;;6.93;6.33;;;13.40;38.90;;;;;;10382526;28;20236;-72
2023/10/16 10:19:46;;;;;;;6.37;5.87;;;13.40;38.80;;;;;;10370456;28;20233;-72
2023/10/16 10:24:52;;;;;;;6.70;6.10;;;13.40;38.90;;;;;;10362805;28;20946;-72
2023/10/16 10:30:03;;;;;;;5.37;4.87;;;13.40;39.50;;;;;;10363351;28;20251;-73
2023/10/16 10:35:23;;;;;;;6.37;5.87;;;13.60;39.50;;;;;;10362989;28;20325;-74
2023/10/16 10:40:33;;;;;;;5.60;5.10;;;13.70;39.30;;;;;;10366877;28;21265;-75
2023/10/16 10:45:39;;;;;;;5.23;4.77;;;13.80;39.10;;;;;;10365983;28;20312;-75
2023/10/16 10:50:45;;;;;;;5.27;4.87;;;13.90;38.70;;;;;;10358585;28;20249;-73
2023/10/16 10:55:59;;;;;;;4.50;4.13;;;14.00;38.70;;;;;;10358081;28;20238;-73
2023/10/16 11:01:16;;;;;;;4.97;4.50;;;14.00;38.00;;;;;;10363882;28;20237;-75
2023/10/16 11:06:31;;;;;;;5.13;4.73;;;14.00;38.30;;;;;;10365160;28;20303;-76
2023/10/16 11:11:39;;;;;;;5.77;5.27;;;14.10;38.00;;;;;;10360605;28;20893;-77
2023/10/16 11:16:48;;;;;;;6.13;5.63;;;14.10;38.10;;;;;;10364776;28;20238;-76
2023/10/16 11:21:52;;;;;;;5.40;5.00;;;14.10;38.10;;;;;;10365288;28;20735;-73
2023/10/16 11:26:58;;;;;;;6.23;5.73;;;14.10;38.10;;;;;;10364100;28;21331;-73
2023/10/16 11:32:06;;;;;;;5.93;5.43;;;14.00;38.10;;;;;;10375200;28;20249;-73
2023/10/16 11:37:12;;;;;;;5.80;5.30;;;14.00;37.90;;;;;;10382463;28;20217;-73
2023/10/16 11:42:16;;;;;;;5.50;5.10;;;14.00;38.10;;;;;;10386225;28;20960;-73
2023/10/16 11:47:22;;;;;;;6.47;5.93;;;14.00;37.80;;;;;;10381268;28;20230;-75
2023/10/16 11:52:27;;;;;;;6.73;6.23;;;14.00;37.90;;;;;;10384930;28;21580;-77
2023/10/16 11:57:31;;;;;;;6.00;5.50;;;14.00;37.90;;;;;;10382602;28;20230;-77
2023/10/16 12:02:38;;;;;;;4.20;3.90;;;14.00;37.60;;;;;;10388657;28;20308;-75
2023/10/16 12:07:44;;;;;;;5.00;4.60;;;14.00;37.30;;;;;;10384138;28;20225;-74
2023/10/16 12:12:47;;;;;;;4.73;4.23;;;13.90;37.30;;;;;;10387382;28;20245;-76
2023/10/16 12:17:55;;;;;;;5.70;5.20;;;13.90;37.30;;;;;;10394421;28;20234;-74
2023/10/16 12:22:58;;;;;;;5.20;4.80;;;13.90;37.30;;;;;;10393126;28;20787;-76
2023/10/16 12:28:02;;;;;;;4.57;3.77;;;14.00;37.20;;;;;;10391162;28;20218;-75
2023/10/16 12:33:07;;;;;;;3.47;3.23;;;13.90;36.90;;;;;;10391720;28;20229;-74
2023/10/16 12:38:11;;;;;;;3.00;2.80;;;13.90;36.50;;;;;;10394164;28;20333;-74
2023/10/16 12:43:15;;;;;;;2.70;2.50;;;13.90;36.70;;;;;;10389374;28;20236;-73
2023/10/16 12:48:21;;;;;;;2.43;2.23;;;13.90;36.30;;;;;;10394810;28;20340;-73
2023/10/16 12:53:25;;;;;;;2.63;2.27;;;14.00;35.90;;;;;;10384369;28;20222;-72
2023/10/16 12:58:30;;;;;;;2.30;2.17;;;14.00;35.90;;;;;;10391230;28;20316;-73
2023/10/16 13:03:35;;;;;;;2.63;2.43;;;14.10;35.60;;;;;;10390645;28;20389;-73
2023/10/16 13:08:39;;;;;;;2.60;2.40;;;14.10;35.30;;;;;;10386583;28;20226;-73
2023/10/16 13:13:44;;;;;;;2.40;2.30;;;14.10;35.50;;;;;;10386397;28;20653;-73
2023/10/16 13:18:48;;;;;;;2.80;2.60;;;14.20;35.50;;;;;;10386748;28;20234;-73
2023/10/16 13:23:53;;;;;;;3.10;2.70;;;14.20;35.00;;;;;;10395118;28;20798;-73
2023/10/16 13:28:56;;;;;;;2.53;2.33;;;14.20;35.20;;;;;;10390780;28;20227;-74
2023/10/16 13:34:02;;;;;;;2.13;1.93;;;14.30;35.20;;;;;;10392714;28;20221;-75
2023/10/16 13:39:08;;;;;;;2.03;1.83;;;14.30;34.60;;;;;;10392189;28;20226;-74
2023/10/16 13:44:11;;;;;;;2.07;1.87;;;14.30;34.50;;;;;;10389743;28;20240;-73
2023/10/16 13:49:18;;;;;;;2.30;2.10;;;14.40;34.60;;;;;;10392122;28;20619;-73
2023/10/16 13:54:21;;;;;;;2.17;1.97;;;14.40;34.30;;;;;;10390165;28;21064;-73
2023/10/16 13:59:26;;;;;;;1.80;1.70;;;14.40;34.60;;;;;;10389562;28;20316;-73
2023/10/16 14:04:33;;;;;;;1.90;1.80;;;14.40;34.40;;;;;;10395740;28;20233;-73
2023/10/16 14:09:38;;;;;;;2.00;1.90;;;14.40;33.90;;;;;;10379418;28;20266;-74
2023/10/16 14:14:41;;;;;;;2.33;1.83;;;14.40;34.30;;;;;;10371102;28;20232;-73
2023/10/16 14:19:47;;;;;;;1.90;1.80;;;14.40;34.30;;;;;;10374983;28;20328;-73
2023/10/16 14:24:51;;;;;;;2.20;2.00;;;14.40;33.90;;;;;;10389064;28;20256;-73
2023/10/16 14:29:59;;;;;;;1.80;1.70;;;14.40;34.20;;;;;;10387196;28;20245;-73
2023/10/16 14:35:05;;;;;;;2.00;1.90;;;14.40;35.00;;;;;;10392826;28;20236;-73
2023/10/16 14:40:09;;;;;;;1.80;1.70;;;14.30;33.50;;;;;;10390774;28;20751;-73
2023/10/16 14:45:15;;;;;;;1.63;1.53;;;14.30;33.70;;;;;;10389830;28;20915;-73
2023/10/16 14:50:20;;;;;;;1.43;1.33;;;14.30;33.70;;;;;;10384792;28;20314;-73
2023/10/16 14:55:24;;;;;;;2.20;1.60;;;14.20;33.30;;;;;;10387522;28;20237;-73
2023/10/16 15:00:32;;;;;;;2.53;2.00;;;14.10;33.60;;;;;;10392546;28;20239;-72
2023/10/16 15:05:39;;;;;;;1.80;1.70;;;14.10;33.60;;;;;;10394073;28;20233;-73
2023/10/16 15:10:43;;;;;;;3.53;2.00;;;14.00;33.40;;;;;;10384031;28;20238;-73
2023/10/16 15:15:52;;;;;;;2.30;2.10;;;13.90;33.60;;;;;;10370962;28;20570;-74
2023/10/16 15:20:57;;;;;;;1.90;1.80;;;13.90;33.70;;;;;;10383454;28;20230;-74
2023/10/16 15:26:01;;;;;;;1.63;1.53;;;13.90;33.30;;;;;;10382739;28;20229;-74
2023/10/16 15:31:04;;;;;;;1.70;1.60;;;13.90;33.40;;;;;;10382372;28;20221;-74
2023/10/16 15:36:09;;;;;;;2.43;2.17;;;13.80;33.50;;;;;;10390600;28;20268;-74
2023/10/16 15:41:13;;;;;;;2.60;2.40;;;13.80;34.60;;;;;;10387479;28;20252;-74
2023/10/16 15:46:26;;;;;;;3.23;2.10;;;13.80;33.60;;;;;;10391793;28;20259;-76
2023/10/16 15:51:32;;;;;;;6.00;2.30;;;13.70;32.40;;;;;;10394508;28;20316;-76
2023/10/16 15:56:35;;;;;;;2.43;2.23;;;13.70;33.20;;;;;;10401661;28;20232;-73
2023/10/16 16:01:42;;;;;;;2.23;1.50;;;13.60;33.30;;;;;;10392573;28;20251;-73
2023/10/16 16:06:46;;;;;;;1.50;1.40;;;13.50;33.20;;;;;;10394091;28;20596;-73
2023/10/16 16:11:50;;;;;;;1.60;1.50;;;13.50;33.20;;;;;;10392880;28;20237;-73
2023/10/16 16:16:53;;;;;;;1.90;1.60;;;13.50;33.40;;;;;;10399281;28;20226;-73
2023/10/16 16:21:58;;;;;;;1.70;1.60;;;13.40;33.30;;;;;;10393255;28;20736;-73
2023/10/16 16:27:01;;;;;;;1.97;1.63;;;13.30;33.00;;;;;;10393411;28;20222;-73
2023/10/16 16:32:05;;;;;;;1.57;1.47;;;13.30;33.40;;;;;;10392286;28;20662;-73
2023/10/16 16:37:09;;;;;;;1.60;1.47;;;13.20;33.00;;;;;;10385814;28;20230;-73
2023/10/16 16:42:13;;;;;;;2.30;2.10;;;13.10;32.80;;;;;;10397218;28;20230;-73
2023/10/16 16:47:17;;;;;;;4.50;3.70;;;13.00;33.30;;;;;;10388676;28;20218;-73
2023/10/16 16:52:23;;;;;;;6.50;3.97;;;13.00;33.60;;;;;;10394617;28;20238;-73
2023/10/16 16:57:27;;;;;;;4.23;3.20;;;12.90;33.60;;;;;;10389466;28;20817;-73
2023/10/16 17:02:30;;;;;;;4.10;2.57;;;12.90;33.60;;;;;;10392036;28;20229;-76
2023/10/16 17:07:35;;;;;;;2.47;2.27;;;12.80;33.60;;;;;;10386623;28;20225;-74
2023/10/16 17:12:40;;;;;;;2.17;1.90;;;12.80;33.60;;;;;;10394417;28;20893;-75
2023/10/16 17:17:46;;;;;;;1.93;1.80;;;12.70;33.50;;;;;;10390412;28;20230;-74
2023/10/16 17:22:51;;;;;;;1.67;1.57;;;12.60;33.40;;;;;;10386838;28;20233;-74
2023/10/16 17:28:08;;;;;;;1.80;1.70;;;12.60;33.40;;;;;;10387987;28;20221;-74
2023/10/16 17:33:11;;;;;;;2.33;1.80;;;12.50;33.40;;;;;;10391140;28;20218;-75
2023/10/16 17:38:16;;;;;;;1.60;1.50;;;12.40;33.50;;;;;;10392819;28;20214;-78
2023/10/16 17:43:19;;;;;;;2.50;2.23;;;12.30;33.40;;;;;;10387977;28;20230;-74
2023/10/16 17:48:24;;;;;;;1.80;1.70;;;12.30;33.60;;;;;;10387353;28;20233;-75
2023/10/16 17:53:30;;;;;;;2.37;1.60;;;12.20;33.30;;;;;;10392003;28;20902;-75
2023/10/16 17:58:33;;;;;;;1.90;1.80;;;12.10;33.20;;;;;;10392292;28;20233;-74
2023/10/16 18:03:36;;;;;;;2.73;2.00;;;12.00;33.30;;;;;;10390017;28;20743;-74
2023/10/16 18:08:46;;;;;;;2.13;1.90;;;11.80;33.40;;;;;;10380721;28;20222;-74
2023/10/16 18:13:49;;;;;;;2.27;2.07;;;11.70;33.50;;;;;;10380789;28;20258;-74
2023/10/16 18:18:53;;;;;;;4.33;3.20;;;11.60;33.50;;;;;;10389296;28;20235;-77
2023/10/16 18:24:00;;;;;;;7.27;5.37;;;11.50;33.40;;;;;;10387940;28;20816;-73
2023/10/16 18:29:03;;;;;;;5.07;4.63;;;11.40;33.30;;;;;;10376062;28;20231;-73
2023/10/16 18:34:07;;;;;;;4.00;3.70;;;11.10;33.40;;;;;;10388844;28;20333;-72
2023/10/16 18:39:13;;;;;;;4.30;3.90;;;10.90;33.80;;;;;;10381564;28;20230;-73
2023/10/16 18:44:18;;;;;;;4.10;3.70;;;10.80;34.10;;;;;;10386337;28;20304;-74
2023/10/16 18:49:21;;;;;;;4.60;4.20;;;10.80;34.30;;;;;;10377206;28;20691;-73
2023/10/16 18:54:26;;;;;;;3.90;3.57;;;10.80;34.40;;;;;;10378304;28;20611;-74
2023/10/16 18:59:30;;;;;;;3.07;2.87;;;10.80;34.40;;;;;;10374197;28;20680;-73
2023/10/16 19:04:33;;;;;;;4.13;3.80;;;10.80;34.50;;;;;;10385471;28;20229;-73
2023/10/16 19:09:38;;;;;;;4.00;3.70;;;10.80;34.50;;;;;;10383888;28;20229;-73
2023/10/16 19:14:41;;;;;;;6.23;5.73;;;10.70;34.20;;;;;;10386794;28;20229;-77
2023/10/16 19:19:44;;;;;;;6.57;5.97;;;10.70;34.30;;;;;;10383210;28;20234;-76
2023/10/16 19:24:50;;;;;;;5.57;5.07;;;10.60;34.40;;;;;;10387385;28;20923;-77
2023/10/16 19:29:56;;;;;;;7.00;6.40;;;10.60;34.50;;;;;;10378021;28;20329;-76
2023/10/16 19:35:00;;;;;;;6.40;5.90;;;10.50;34.30;;;;;;10381959;28;20233;-77
2023/10/16 19:40:12;;;;;;;6.97;6.27;;;10.50;34.30;;;;;;10382778;28;20232;-77
2023/10/16 19:45:17;;;;;;;7.70;7.00;;;10.50;34.40;;;;;;10382452;28;20229;-77
2023/10/16 19:50:22;;;;;;;7.03;6.33;;;10.40;34.40;;;;;;10385417;28;20329;-77
2023/10/16 19:55:28;;;;;;;10.47;9.03;;;10.40;34.50;;;;;;10378127;28;20391;-77
2023/10/16 20:00:34;;;;;;;6.10;5.60;;;10.40;34.50;;;;;;10378043;28;20241;-77
2023/10/16 20:05:39;;;;;;;4.83;4.43;;;10.40;34.50;;;;;;10379058;28;20659;-77
2023/10/16 20:10:44;;;;;;;4.93;4.43;;;10.30;34.70;;;;;;10379586;28;20647;-77
2023/10/16 20:15:47;;;;;;;6.10;5.53;;;10.30;34.70;;;;;;10376628;28;20227;-77
2023/10/16 20:20:53;;;;;;;5.43;4.93;;;10.30;34.60;;;;;;10378748;28;20715;-77
2023/10/16 20:25:58;;;;;;;5.67;5.17;;;10.30;34.70;;;;;;10375626;28;20226;-77
2023/10/16 20:31:04;;;;;;;5.33;4.07;;;10.20;34.60;;;;;;10378988;28;20256;-76
2023/10/16 20:36:09;;;;;;;5.47;4.30;;;10.20;34.60;;;;;;10387371;28;20226;-76
2023/10/16 20:41:14;;;;;;;4.00;3.70;;;10.20;34.60;;;;;;10389827;28;20291;-77
2023/10/16 20:46:17;;;;;;;3.83;3.50;;;10.10;34.60;;;;;;10391417;28;20230;-77
2023/10/16 20:51:20;;;;;;;4.77;3.60;;;10.10;34.60;;;;;;10390257;28;20769;-77
2023/10/16 20:56:27;;;;;;;3.53;3.23;;;10.10;34.60;;;;;;10389217;28;20243;-77
2023/10/16 21:01:32;;;;;;;3.87;3.57;;;10.00;34.70;;;;;;10384444;28;20323;-77
2023/10/16 21:06:35;;;;;;;4.13;3.83;;;9.90;35.50;;;;;;10384106;28;20230;-77
2023/10/16 21:11:40;;;;;;;4.40;3.37;;;9.90;35.50;;;;;;10380208;28;20222;-77
2023/10/16 21:16:43;;;;;;;3.23;2.90;;;9.80;35.60;;;;;;10384256;28;20279;-77
2023/10/16 21:21:48;;;;;;;3.93;3.47;;;9.80;35.50;;;;;;10385372;28;20237;-77
2023/10/16 21:26:52;;;;;;;3.73;3.43;;;9.70;35.60;;;;;;10384966;28;20848;-77
2023/10/16 21:31:55;;;;;;;3.87;3.57;;;9.70;35.60;;;;;;10380122;28;20240;-75
2023/10/16 21:37:00;;;;;;;3.30;3.00;;;9.60;35.60;;;;;;10379151;28;20764;-75
2023/10/16 21:42:04;;;;;;;3.40;3.10;;;9.60;35.80;;;;;;10379994;28;20229;-74
2023/10/16 21:47:09;;;;;;;3.53;3.30;;;9.50;35.90;;;;;;10382544;28;20230;-75
2023/10/16 21:52:15;;;;;;;3.20;2.83;;;9.50;35.90;;;;;;10383045;28;20265;-74
2023/10/16 21:57:20;;;;;;;4.00;3.20;;;9.50;35.90;;;;;;10383955;28;20230;-75
2023/10/16 22:02:24;;;;;;;2.87;2.67;;;9.40;35.90;;;;;;10373524;28;20324;-74
2023/10/16 22:07:27;;;;;;;2.63;2.43;;;9.40;35.90;;;;;;10384169;28;20221;-74
2023/10/16 22:12:32;;;;;;;3.30;3.10;;;9.40;36.00;;;;;;10371404;28;20933;-75
2023/10/16 22:17:35;;;;;;;3.40;3.10;;;9.40;36.00;;;;;;10384514;28;20232;-75
2023/10/16 22:22:40;;;;;;;3.90;3.50;;;9.30;35.90;;;;;;10379001;28;20238;-74
2023/10/16 22:27:45;;;;;;;3.00;2.80;;;9.30;35.90;;;;;;10382782;28;20228;-74
2023/10/16 22:32:48;;;;;;;3.13;2.93;;;9.30;36.00;;;;;;10380121;28;20229;-74
2023/10/16 22:37:53;;;;;;;3.10;2.90;;;9.20;35.90;;;;;;10378221;28;21066;-74
2023/10/16 22:42:59;;;;;;;3.00;2.80;;;9.20;35.90;;;;;;10379462;28;20240;-74
2023/10/16 22:48:03;;;;;;;2.67;2.47;;;9.20;36.00;;;;;;10384041;28;20258;-74
2023/10/16 22:53:07;;;;;;;2.80;2.60;;;9.10;35.90;;;;;;10381661;28;20897;-74
2023/10/16 22:58:11;;;;;;;3.50;3.30;;;9.10;35.90;;;;;;10381639;28;20229;-75
2023/10/16 23:03:15;;;;;;;2.77;2.57;;;9.10;35.90;;;;;;10375564;28;20648;-74
2023/10/16 23:08:18;;;;;;;2.87;2.67;;;9.00;35.80;;;;;;10377984;28;20912;-74
2023/10/16 23:13:25;;;;;;;3.00;2.80;;;9.00;35.80;;;;;;10384758;28;20580;-74
2023/10/16 23:18:29;;;;;;;3.13;2.93;;;8.90;35.80;;;;;;10379460;28;20291;-74
2023/10/16 23:23:32;;;;;;;2.73;2.53;;;8.90;35.90;;;;;;10382318;28;20743;-74
2023/10/16 23:28:37;;;;;;;3.60;3.30;;;8.90;36.00;;;;;;10382497;28;20304;-74
2023/10/16 23:33:44;;;;;;;3.07;2.87;;;8.80;35.90;;;;;;10383077;28;20233;-74
2023/10/16 23:38:47;;;;;;;3.20;2.90;;;8.80;35.70;;;;;;10381412;28;20264;-74
2023/10/16 23:43:58;;;;;;;2.60;2.50;;;8.70;35.60;;;;;;10383045;28;20291;-73
2023/10/16 23:49:07;;;;;;;3.03;2.83;;;8.60;35.90;;;;;;10382947;28;20232;-74
2023/10/16 23:54:19;;;;;;;2.40;2.30;;;8.50;36.00;;;;;;10382771;28;20689;-73
2023/10/16 23:59:24;;;;;;;2.33;2.23;;;8.50;36.00;;;;;;10382971;28;20316;-72
